Jardim, Brazil
Current Conditions -  °F | °C
As of 7:00 AM on Saturday 22 Nov 2014 (Local Time) from SBJU Reporting Station
Broken Clouds Broken Clouds  
Wind Chill: 79°   Ceiling: 1800
Heat Index: 82°   Visibility: 6mi
Dew Point: 72°   Wind: 8mph
Humidity: 78%   Direction: 110°ESE
Pressure: 30.03"   Gusts: NA
Location:  7.58°S, 39.3°W
Report Text: SBJU 221000Z 11007KT 9999 BKN018 26/22 Q1017
Loading
Personal Weather Stations






























Interactive Weather Map New forecast layout! Learn more

10-Day Weather Forecast

Advertisements
Track Severe Weather on mobile